createdAt,value
2017-11-14T00:01:57.060Z,98909.86
2017-11-14T00:04:29.080Z,98915.77
2017-11-14T00:06:59.493Z,98915.72
2017-11-14T00:09:30.815Z,98920.63
2017-11-14T00:12:01.388Z,98910.93
2017-11-14T00:17:05.603Z,98921.56
2017-11-14T00:19:35.359Z,98932.05
2017-11-14T00:22:06.190Z,98934.55
2017-11-14T00:24:37.731Z,98924.92
2017-11-14T00:27:09.930Z,98931.30
2017-11-14T00:29:40.200Z,98931.89
2017-11-14T00:32:10.044Z,98935.60
2017-11-14T00:34:39.930Z,98935.06
2017-11-14T00:37:09.875Z,98937.73
2017-11-14T00:39:39.758Z,98938.73
2017-11-14T00:44:45.696Z,98945.41
2017-11-14T00:47:16.118Z,98951.53
2017-11-14T00:49:50.169Z,98950.61
2017-11-14T00:52:22.272Z,98956.16
2017-11-14T00:54:52.680Z,98952.23
2017-11-14T01:02:42.845Z,98965.50
2017-11-14T01:05:18.180Z,98968.58
2017-11-14T01:07:53.118Z,98963.05
2017-11-14T01:15:30.892Z,98966.00
2017-11-14T01:18:02.592Z,98967.19
2017-11-14T01:20:36.296Z,98975.38
2017-11-14T01:23:06.193Z,98972.64
2017-11-14T01:25:36.142Z,98976.62
2017-11-14T01:28:08.320Z,98985.44
2017-11-14T01:30:41.603Z,98980.84
2017-11-14T01:33:12.247Z,98985.90
2017-11-14T01:35:42.280Z,98986.55
2017-11-14T01:38:12.360Z,98988.05
2017-11-14T01:40:42.348Z,98992.27
2017-11-14T01:43:12.281Z,98995.49
2017-11-14T01:45:44.287Z,99000.47
2017-11-14T01:48:15.044Z,98997.14
2017-11-14T01:50:45.853Z,99008.53
2017-11-14T01:53:16.209Z,99008.94
2017-11-14T01:55:46.186Z,99011.52
2017-11-14T01:58:16.333Z,99013.29
2017-11-14T02:00:52.185Z,99013.08
2017-11-14T02:03:25.497Z,99017.42
2017-11-14T02:05:55.340Z,99019.62
2017-11-14T02:08:28.730Z,99017.77
2017-11-14T02:10:59.734Z,99019.61
2017-11-14T02:13:33.206Z,99016.45
2017-11-14T02:16:04.087Z,99027.78
2017-11-14T02:18:37.149Z,99023.20
2017-11-14T02:23:41.437Z,99035.39
2017-11-14T02:26:11.334Z,99041.68
2017-11-14T02:31:15.316Z,99056.18
2017-11-14T02:38:54.015Z,99061.27
2017-11-14T02:51:40.640Z,99063.47
2017-11-14T03:07:06.670Z,99077.42
2017-11-14T03:12:15.224Z,99082.62
2017-11-14T03:25:09.762Z,99103.55
2017-11-14T03:48:20.760Z,99121.03
2017-11-14T04:14:23.765Z,99133.39
2017-11-14T04:19:29.163Z,99138.55
2017-11-14T04:22:02.460Z,99143.91
2017-11-14T04:24:34.260Z,99146.20
2017-11-14T04:32:16.597Z,99156.67
2017-11-14T04:34:47.978Z,99156.29
2017-11-14T04:37:18.573Z,99157.73
2017-11-14T04:39:48.834Z,99156.20
2017-11-14T04:42:18.721Z,99156.23
2017-11-14T04:44:50.307Z,99168.09
2017-11-14T04:47:20.302Z,99174.45
2017-11-14T04:49:50.313Z,99174.97
2017-11-14T04:52:21.899Z,99177.00
2017-11-14T04:57:25.909Z,99183.89
2017-11-14T05:02:31.106Z,99189.86
2017-11-14T05:05:02.647Z,99194.27
2017-11-14T05:07:37.348Z,99198.61
2017-11-14T05:10:08.822Z,99204.60
2017-11-14T05:12:39.255Z,99213.23
2017-11-14T05:15:10.626Z,99220.81
2017-11-14T05:22:51.656Z,99229.28
2017-11-14T05:25:22.371Z,99237.60
2017-11-14T05:43:54.200Z,99268.91
2017-11-14T05:56:58.663Z,99277.20
2017-11-14T05:59:28.494Z,99282.82
2017-11-14T06:02:02.221Z,99283.32
2017-11-14T06:04:31.846Z,99286.23
2017-11-14T06:07:01.665Z,99292.17
2017-11-14T06:09:35.617Z,99293.98
2017-11-14T06:12:05.405Z,99301.33
2017-11-14T06:17:24.341Z,99306.80
2017-11-14T06:19:54.713Z,99309.45
2017-11-14T06:22:24.690Z,99311.63
2017-11-14T06:24:54.550Z,99306.24
2017-11-14T06:27:42.959Z,99316.61
2017-11-14T06:30:15.247Z,99314.55
2017-11-14T06:32:45.538Z,99317.63
2017-11-14T06:35:18.590Z,99315.03
2017-11-14T06:37:48.680Z,99319.06
2017-11-14T06:40:19.175Z,99320.43
2017-11-14T06:42:49.186Z,99315.63
2017-11-14T06:45:19.448Z,99324.52
2017-11-14T06:47:49.455Z,99332.95
2017-11-14T06:50:19.314Z,99336.16
2017-11-14T06:52:49.324Z,99343.05
2017-11-14T06:55:19.626Z,99351.91
2017-11-14T06:57:49.551Z,99350.48
2017-11-14T07:00:19.569Z,99359.70
2017-11-14T07:02:49.546Z,99358.39
2017-11-14T07:05:20.504Z,99356.52
2017-11-14T07:07:50.612Z,99360.70
2017-11-14T07:10:20.617Z,99361.41
2017-11-14T07:12:50.443Z,99363.53
2017-11-14T07:15:20.348Z,99363.11
2017-11-14T07:17:49.908Z,99367.91
2017-11-14T07:20:19.862Z,99366.63
2017-11-14T07:22:50.108Z,99370.20
2017-11-14T07:25:20.003Z,99376.21
2017-11-14T07:27:50.837Z,99383.78
2017-11-14T07:30:20.657Z,99382.45
2017-11-14T07:32:50.814Z,99381.19
2017-11-14T07:35:20.901Z,99385.85
2017-11-14T07:37:51.075Z,99387.59
2017-11-14T07:40:21.271Z,99391.06
2017-11-14T07:42:51.103Z,99393.37
2017-11-14T07:45:21.004Z,99394.46
2017-11-14T07:47:51.795Z,99399.74
2017-11-14T07:50:21.730Z,99394.94
2017-11-14T07:52:51.941Z,99401.18
2017-11-14T07:55:21.895Z,99396.88
2017-11-14T07:57:51.799Z,99405.87
2017-11-14T08:00:22.574Z,99403.11
2017-11-14T08:02:53.288Z,99412.91
2017-11-14T08:05:24.807Z,99413.36
2017-11-14T08:07:54.701Z,99408.25
2017-11-14T08:10:26.062Z,99415.92
2017-11-14T08:12:56.592Z,99422.05
2017-11-14T08:15:26.937Z,99429.98
2017-11-14T08:17:56.957Z,99428.57
2017-11-14T08:20:27.173Z,99424.95
2017-11-14T08:22:57.791Z,99425.59
2017-11-14T08:25:27.872Z,99422.34
2017-11-14T08:27:58.758Z,99423.41
2017-11-14T08:30:29.241Z,99423.59
2017-11-14T08:32:59.184Z,99427.70
2017-11-14T08:35:29.483Z,99430.89
2017-11-14T08:37:59.475Z,99432.88
2017-11-14T08:40:31.607Z,99437.06
2017-11-14T08:43:02.067Z,99435.91
2017-11-14T08:45:36.373Z,99425.93
2017-11-14T08:48:06.575Z,99425.17
2017-11-14T08:50:36.549Z,99421.03
2017-11-14T08:53:06.667Z,99428.22
2017-11-14T08:55:36.522Z,99430.05
2017-11-14T08:58:06.450Z,99433.11
2017-11-14T09:00:36.507Z,99434.42
2017-11-14T09:03:06.168Z,99433.27
2017-11-14T09:05:36.179Z,99429.42
2017-11-14T09:08:06.631Z,99431.44
2017-11-14T09:10:36.167Z,99438.00
2017-11-14T09:13:06.051Z,99428.60
2017-11-14T09:15:37.408Z,99439.55
2017-11-14T09:18:07.679Z,99441.83
2017-11-14T09:20:37.791Z,99443.42
2017-11-14T09:23:07.598Z,99446.84
2017-11-14T09:25:37.930Z,99446.56
2017-11-14T09:28:07.232Z,99455.00
2017-11-14T09:30:36.561Z,99452.82
2017-11-14T09:33:06.157Z,99455.40
2017-11-14T09:35:35.782Z,99462.14
2017-11-14T09:38:05.793Z,99459.01
2017-11-14T09:40:35.706Z,99455.79
2017-11-14T09:43:05.552Z,99458.47
2017-11-14T09:45:35.415Z,99457.52
2017-11-14T09:48:05.055Z,99443.80
2017-11-14T09:50:34.536Z,99445.53
2017-11-14T09:53:03.857Z,99449.24
2017-11-14T09:55:33.846Z,99437.69
2017-11-14T09:58:03.415Z,99439.33
2017-11-14T10:00:33.293Z,99443.35
2017-11-14T10:03:02.813Z,99436.13
2017-11-14T10:05:32.353Z,99436.37
2017-11-14T10:08:02.033Z,99436.02
2017-11-14T10:10:31.851Z,99432.94
2017-11-14T10:13:01.338Z,99437.66
2017-11-14T10:15:31.273Z,99432.90
2017-11-14T10:18:01.288Z,99438.86
2017-11-14T10:20:30.766Z,99433.02
2017-11-14T10:23:00.486Z,99431.30
2017-11-14T10:25:30.271Z,99430.59
2017-11-14T10:28:00.560Z,99435.23
2017-11-14T10:30:31.590Z,99430.31
2017-11-14T10:33:01.309Z,99432.25
2017-11-14T10:35:32.505Z,99435.66
2017-11-14T10:38:02.534Z,99428.68
2017-11-14T10:40:41.064Z,99431.11
2017-11-14T10:43:14.600Z,99435.60
2017-11-14T10:48:23.141Z,99438.22
2017-11-14T10:51:02.585Z,99437.95
2017-11-14T10:53:43.894Z,99441.55
2017-11-14T10:59:00.949Z,99432.58
2017-11-14T11:01:32.910Z,99434.55
2017-11-14T11:04:05.595Z,99431.50
2017-11-14T11:06:37.116Z,99427.31
2017-11-14T11:11:43.083Z,99432.16
2017-11-14T11:14:21.774Z,99423.30
2017-11-14T11:19:48.392Z,99428.31
2017-11-14T11:32:48.989Z,99423.17
2017-11-14T11:35:37.911Z,99418.45
2017-11-14T11:41:05.472Z,99422.44
2017-11-14T11:43:42.332Z,99422.09
2017-11-14T12:05:05.233Z,99414.39
2017-11-14T12:19:27.865Z,99413.95
2017-11-14T12:21:57.752Z,99409.53
2017-11-14T12:24:27.359Z,99412.39
2017-11-14T12:26:57.044Z,99410.50
2017-11-14T12:29:26.569Z,99411.25
2017-11-14T12:31:56.330Z,99406.45
2017-11-14T12:34:25.840Z,99406.72
2017-11-14T12:36:56.358Z,99402.72
2017-11-14T12:39:25.782Z,99394.33
2017-11-14T12:41:55.239Z,99386.78
2017-11-14T12:44:24.713Z,99387.12
2017-11-14T12:46:54.144Z,99391.31
2017-11-14T12:49:24.149Z,99399.69
2017-11-14T13:40:16.561Z,99379.00
2017-11-14T13:42:46.340Z,99381.85
2017-11-14T13:45:16.007Z,99380.98
2017-11-14T13:47:45.728Z,99383.97
2017-11-14T13:50:15.183Z,99385.97
2017-11-14T13:52:45.071Z,99379.05
2017-11-14T13:55:14.594Z,99377.13
2017-11-14T13:57:44.312Z,99369.25
2017-11-14T14:00:14.314Z,99377.86
2017-11-14T14:02:43.897Z,99369.59
2017-11-14T14:05:13.670Z,99366.61
2017-11-14T14:07:43.954Z,99371.20
2017-11-14T14:10:14.119Z,99371.28
2017-11-14T14:12:43.907Z,99371.81
2017-11-14T14:15:13.382Z,99367.80
2017-11-14T14:17:42.850Z,99370.63
2017-11-14T14:20:12.317Z,99374.80
2017-11-14T14:22:41.896Z,99379.13
2017-11-14T14:25:11.375Z,99376.02
2017-11-14T14:27:40.833Z,99382.83
2017-11-14T14:30:10.331Z,99387.45
2017-11-14T14:32:39.883Z,99384.45
2017-11-14T14:35:09.280Z,99393.84
2017-11-14T14:37:43.146Z,99388.97
2017-11-14T14:40:12.689Z,99391.48
2017-11-14T14:42:42.144Z,99388.00
2017-11-14T14:45:11.706Z,99399.13
2017-11-14T14:47:41.231Z,99391.84
2017-11-14T14:50:10.671Z,99391.50
2017-11-14T14:52:40.405Z,99394.75
2017-11-14T14:55:10.000Z,99397.95
2017-11-14T14:57:39.775Z,99393.96
2017-11-14T15:00:09.689Z,99398.78
2017-11-14T15:02:39.445Z,99395.76
2017-11-14T15:05:09.287Z,99398.52
2017-11-14T15:07:39.047Z,99395.55
2017-11-14T15:10:08.818Z,99393.83
2017-11-14T15:12:38.411Z,99389.86
2017-11-14T15:15:08.527Z,99387.42
2017-11-14T15:17:39.600Z,99396.83
2017-11-14T15:20:11.010Z,99395.08
2017-11-14T15:22:44.676Z,99391.52
2017-11-14T15:25:14.538Z,99398.53
2017-11-14T15:27:44.992Z,99397.70
2017-11-14T15:30:14.448Z,99397.56
2017-11-14T15:32:44.416Z,99394.95
2017-11-14T15:35:14.910Z,99397.64
2017-11-14T15:37:44.753Z,99405.36
2017-11-14T15:40:14.676Z,99416.65
2017-11-14T15:42:44.782Z,99418.02
2017-11-14T15:45:14.860Z,99411.69
2017-11-14T15:47:44.872Z,99410.30
2017-11-14T15:50:14.965Z,99412.19
2017-11-14T15:52:48.749Z,99412.34
2017-11-14T15:55:18.532Z,99412.18
2017-11-14T15:57:48.615Z,99414.42
2017-11-14T16:00:19.359Z,99422.98
2017-11-14T16:02:49.144Z,99426.89
2017-11-14T16:05:18.891Z,99428.52
2017-11-14T16:07:48.748Z,99426.58
2017-11-14T16:10:18.590Z,99431.61
2017-11-14T16:12:49.254Z,99437.06
2017-11-14T16:15:19.170Z,99433.71
2017-11-14T16:17:49.067Z,99446.29
2017-11-14T16:20:18.911Z,99451.91
2017-11-14T16:22:50.266Z,99451.82
2017-11-14T16:25:20.604Z,99455.44
2017-11-14T16:27:50.540Z,99457.50
2017-11-14T16:30:20.859Z,99459.75
2017-11-14T16:32:50.880Z,99456.47
2017-11-14T16:35:21.106Z,99465.22
2017-11-14T16:37:51.969Z,99468.30
2017-11-14T16:40:21.449Z,99472.40
2017-11-14T16:42:51.261Z,99475.48
2017-11-14T16:45:21.353Z,99471.00
2017-11-14T16:47:51.480Z,99472.33
2017-11-14T16:50:24.325Z,99471.08
2017-11-14T16:52:54.279Z,99474.72
2017-11-14T16:55:24.194Z,99474.53
2017-11-14T16:57:54.371Z,99467.05
2017-11-14T17:00:24.104Z,99477.70
2017-11-14T17:02:53.835Z,99480.09
2017-11-14T17:05:23.754Z,99487.16
2017-11-14T17:07:53.526Z,99487.58
2017-11-14T17:10:23.226Z,99494.34
2017-11-14T17:12:53.349Z,99497.84
2017-11-14T17:15:24.089Z,99501.58
2017-11-14T17:17:54.301Z,99507.39
2017-11-14T17:20:25.255Z,99506.76
2017-11-14T17:22:55.521Z,99509.50
2017-11-14T17:25:26.235Z,99512.52
2017-11-14T17:27:56.769Z,99511.88
2017-11-14T17:30:26.621Z,99512.55
2017-11-14T17:32:56.441Z,99517.58
2017-11-14T17:35:30.213Z,99520.00
2017-11-14T17:38:00.006Z,99528.34
2017-11-14T17:40:30.047Z,99526.78
2017-11-14T17:43:00.264Z,99532.57
2017-11-14T17:45:31.741Z,99531.56
2017-11-14T17:48:01.791Z,99532.48
2017-11-14T17:50:31.865Z,99537.78
2017-11-14T17:53:01.847Z,99539.53
2017-11-14T17:55:31.752Z,99537.79
2017-11-14T17:58:01.658Z,99544.08
2017-11-14T18:00:31.492Z,99546.22
2017-11-14T18:03:00.908Z,99557.78
2017-11-14T18:05:36.568Z,99554.26
2017-11-14T18:08:06.501Z,99562.20
2017-11-14T18:10:36.456Z,99559.60
2017-11-14T18:13:06.398Z,99568.23
2017-11-14T18:15:37.280Z,99569.45
2017-11-14T18:18:07.190Z,99569.17
2017-11-14T18:20:37.133Z,99569.75
2017-11-14T18:23:07.210Z,99573.50
2017-11-14T18:25:37.270Z,99584.64
2017-11-14T18:28:07.220Z,99583.69
2017-11-14T18:30:37.177Z,99590.97
2017-11-14T18:33:06.996Z,99592.13
2017-11-14T18:35:36.851Z,99597.31
2017-11-14T18:38:06.926Z,99596.61
2017-11-14T18:40:36.733Z,99601.50
2017-11-14T18:43:06.590Z,99593.20
2017-11-14T18:45:36.499Z,99589.70
2017-11-14T18:48:06.422Z,99590.53
2017-11-14T18:50:36.262Z,99597.87
2017-11-14T18:53:06.084Z,99587.45
2017-11-14T18:55:35.847Z,99589.52
2017-11-14T18:58:05.795Z,99582.91
2017-11-14T19:00:35.715Z,99582.28
2017-11-14T19:03:06.131Z,99581.30
2017-11-14T19:05:35.985Z,99583.14
2017-11-14T19:08:09.668Z,99582.27
2017-11-14T19:10:39.435Z,99587.49
2017-11-14T19:13:09.168Z,99581.89
2017-11-14T19:15:38.891Z,99589.48
2017-11-14T19:18:08.731Z,99586.14
2017-11-14T19:20:38.493Z,99581.27
2017-11-14T19:23:08.226Z,99589.86
2017-11-14T19:25:37.971Z,99591.78
2017-11-14T19:28:07.725Z,99592.39
2017-11-14T19:30:37.480Z,99590.00
2017-11-14T19:33:08.977Z,99595.13
2017-11-14T19:35:42.885Z,99587.07
2017-11-14T19:38:15.661Z,99593.56
2017-11-14T19:40:53.516Z,99589.32
2017-11-14T19:43:23.985Z,99587.55
2017-11-14T19:53:42.193Z,99599.58
2017-11-14T19:56:14.208Z,99612.00
2017-11-14T20:09:22.447Z,99615.42
2017-11-14T20:14:28.825Z,99617.47
2017-11-14T20:16:59.608Z,99626.17
2017-11-14T20:24:39.447Z,99618.50
2017-11-14T20:27:09.202Z,99619.42
2017-11-14T20:29:38.954Z,99620.20
2017-11-14T21:38:23.553Z,99605.38
2017-11-14T21:40:56.919Z,99604.87
2017-11-14T21:43:27.893Z,99601.52
2017-11-14T21:46:00.211Z,99604.53
2017-11-14T21:48:46.858Z,99602.80
2017-11-14T21:51:20.655Z,99602.96
2017-11-14T22:00:08.601Z,99613.58
2017-11-14T22:15:45.212Z,99623.39
2017-11-14T22:21:57.506Z,99623.36
2017-11-14T22:58:03.495Z,99638.32
2017-11-14T23:03:55.593Z,99641.10
2017-11-14T23:09:17.227Z,99637.14
2017-11-14T23:17:18.163Z,99625.11
